Thekla Schulte — 9VPY3 — position and weather

sailwx.info

Track history (hours):
 
Tides and Currents Weather Stations Pressure Air Temp Water Temp Dewpoint Dewpoint Depression Visibility Wind Speed Wind Dir Waves Ship Positions

Thekla Schulte

Last reported at 2018-Jan-29 09:47 UTC. Time now 2018-Feb-20 04:17 UTC.
Position N 40°26' W 073°49'.
Warning: this ship's position is 21 days out of date.

Length 210 m; draft 8.2 m.

Type: Cargo ship. MMSI: 565473000.

Date/timePositionNaut miles runAvg speedWind from/ knotsBaromVisibWave heightAir tempDewpointWater temp
2018-Jan-29 09:47N 40°26' W 073°49'3 9.8
2018-Jan-29 09:30N 40°28' W 073°52'510.3
2018-Jan-29 09:00N 40°30' W 073°58'712.5
2018-Jan-29 08:26N 40°36' W 074°03'3 8.2
2018-Jan-29 08:00N 40°39' W 074°06'2 4.7
2018-Jan-29 07:30N 40°39' W 074°09'0 0.5
2018-Jan-29 06:58N 40°40' W 074°09'0 0.0
2018-Jan-29 06:28N 40°40' W 074°09'0 0.0
2018-Jan-29 05:58N 40°40' W 074°09'0 0.0
2018-Jan-29 05:28N 40°40' W 074°09'0 0.0
2018-Jan-29 04:58N 40°40' W 074°09'0 0.0
2018-Jan-29 04:28N 40°40' W 074°09'0 0.0
2018-Jan-29 03:58N 40°40' W 074°09'0 0.0
2018-Jan-29 03:28N 40°40' W 074°09'0 0.0
2018-Jan-29 02:58N 40°40' W 074°09'0 0.0
2018-Jan-29 02:28N 40°40' W 074°09'0 0.0
2018-Jan-29 01:58N 40°40' W 074°09'0 0.0
2018-Jan-29 01:28N 40°40' W 074°09'0 0.0
2018-Jan-29 00:58N 40°40' W 074°09'0 0.0
2018-Jan-29 00:22N 40°40' W 074°09'0 0.0
2018-Jan-28 23:58N 40°40' W 074°09'0 0.0
2018-Jan-28 23:28N 40°40' W 074°09'0 0.0
2018-Jan-28 22:58N 40°40' W 074°09'0 0.0
2018-Jan-28 22:25N 40°40' W 074°09'0 0.0
2018-Jan-28 21:58N 40°40' W 074°09'0 0.1
2018-Jan-28 21:30N 40°40' W 074°09'1 2.8
2018-Jan-28 20:59N 40°39' W 074°07'3 6.3
2018-Jan-28 20:29N 40°38' W 074°03'510.6
2018-Jan-28 19:59N 40°33' W 074°02'612.8
2018-Jan-28 19:29N 40°29' W 073°55'5 9.6
2018-Jan-28 19:00N 40°27' W 073°50'  
2018-Jan-23 13:03N 37°21' W 028°27'117.7
2018-Jan-23 13:00N 37°21' W 028°26'1418.3
2018-Jan-23 12:15N 37°30' W 028°12'518.2
2018-Jan-23 12:00N 37°33' W 028°07'917.8
2018-Jan-23 11:29N 37°38' W 027°58'1218.0
2018-Jan-23 10:51N 37°45' W 027°47'618.6
2018-Jan-23 10:30N 37°49' W 027°40'  
2018-Jan-19 21:10N 50°26' W 000°22'415.8
2018-Jan-19 20:55N 50°27' W 000°16'716.3
2018-Jan-19 20:29N 50°29' W 000°05'5817.8
2018-Jan-19 17:13N 50°54' E 001°17'418.0
2018-Jan-19 17:00N 50°57' E 001°21'917.5
2018-Jan-19 16:30N 51°04' E 001°30'816.1
2018-Jan-19 16:00N 51°10' E 001°39'815.8
2018-Jan-19 15:30N 51°16' E 001°47'816.0
2018-Jan-19 15:00N 51°23' E 001°52'815.8
2018-Jan-19 14:30N 51°31' E 001°53'1317.1
2018-Jan-19 13:45N 51°43' E 001°45'418.3
2018-Jan-19 13:31N 51°48' E 001°44'714.0
2018-Jan-19 13:00N 51°52' E 001°35'510.9
2018-Jan-19 12:30N 51°56' E 001°30'713.6
2018-Jan-19 12:00N 51°56' E 001°19'2 4.2
2018-Jan-19 11:30N 51°57' E 001°18'0 0.0
2018-Jan-19 11:00N 51°57' E 001°18'0 0.0
2018-Jan-19 10:30N 51°57' E 001°18'0 0.0
2018-Jan-19 10:00N 51°57' E 001°18'  
Track history (hours):
 
Tides and Currents Weather Stations Pressure Air Temp Water Temp Dewpoint Dewpoint Depression Visibility Wind Speed Wind Dir Waves Ship Positions

Thekla Schulte

Last reported at 2018-Jan-29 09:47 UTC. Time now 2018-Feb-20 04:17 UTC.
Position N 40°26' W 073°49'.
Warning: this ship's position is 21 days out of date.

Length 210 m; draft 8.2 m.

Type: Cargo ship. MMSI: 565473000.

Date/timePositionNaut miles runAvg speedWind from/ knotsBaromVisibWave heightAir tempDewpointWater temp
2018-Jan-29 09:47N 40°26' W 073°49'3 9.8
2018-Jan-29 09:30N 40°28' W 073°52'510.3
2018-Jan-29 09:00N 40°30' W 073°58'712.5
2018-Jan-29 08:26N 40°36' W 074°03'3 8.2
2018-Jan-29 08:00N 40°39' W 074°06'2 4.7
2018-Jan-29 07:30N 40°39' W 074°09'0 0.5
2018-Jan-29 06:58N 40°40' W 074°09'0 0.0
2018-Jan-29 06:28N 40°40' W 074°09'0 0.0
2018-Jan-29 05:58N 40°40' W 074°09'0 0.0
2018-Jan-29 05:28N 40°40' W 074°09'0 0.0
2018-Jan-29 04:58N 40°40' W 074°09'0 0.0
2018-Jan-29 04:28N 40°40' W 074°09'0 0.0
2018-Jan-29 03:58N 40°40' W 074°09'0 0.0
2018-Jan-29 03:28N 40°40' W 074°09'0 0.0
2018-Jan-29 02:58N 40°40' W 074°09'0 0.0
2018-Jan-29 02:28N 40°40' W 074°09'0 0.0
2018-Jan-29 01:58N 40°40' W 074°09'0 0.0
2018-Jan-29 01:28N 40°40' W 074°09'0 0.0
2018-Jan-29 00:58N 40°40' W 074°09'0 0.0
2018-Jan-29 00:22N 40°40' W 074°09'0 0.0
2018-Jan-28 23:58N 40°40' W 074°09'0 0.0
2018-Jan-28 23:28N 40°40' W 074°09'0 0.0
2018-Jan-28 22:58N 40°40' W 074°09'0 0.0
2018-Jan-28 22:25N 40°40' W 074°09'0 0.0
2018-Jan-28 21:58N 40°40' W 074°09'0 0.1
2018-Jan-28 21:30N 40°40' W 074°09'1 2.8
2018-Jan-28 20:59N 40°39' W 074°07'3 6.3
2018-Jan-28 20:29N 40°38' W 074°03'510.6
2018-Jan-28 19:59N 40°33' W 074°02'612.8
2018-Jan-28 19:29N 40°29' W 073°55'5 9.6
2018-Jan-28 19:00N 40°27' W 073°50'  
2018-Jan-23 13:03N 37°21' W 028°27'117.7
2018-Jan-23 13:00N 37°21' W 028°26'1418.3
2018-Jan-23 12:15N 37°30' W 028°12'518.2
2018-Jan-23 12:00N 37°33' W 028°07'917.8
2018-Jan-23 11:29N 37°38' W 027°58'1218.0
2018-Jan-23 10:51N 37°45' W 027°47'618.6
2018-Jan-23 10:30N 37°49' W 027°40'  
2018-Jan-19 21:10N 50°26' W 000°22'415.8
2018-Jan-19 20:55N 50°27' W 000°16'716.3
2018-Jan-19 20:29N 50°29' W 000°05'5817.8
2018-Jan-19 17:13N 50°54' E 001°17'418.0
2018-Jan-19 17:00N 50°57' E 001°21'917.5
2018-Jan-19 16:30N 51°04' E 001°30'816.1
2018-Jan-19 16:00N 51°10' E 001°39'815.8
2018-Jan-19 15:30N 51°16' E 001°47'816.0
2018-Jan-19 15:00N 51°23' E 001°52'815.8
2018-Jan-19 14:30N 51°31' E 001°53'1317.1
2018-Jan-19 13:45N 51°43' E 001°45'418.3
2018-Jan-19 13:31N 51°48' E 001°44'714.0
2018-Jan-19 13:00N 51°52' E 001°35'510.9
2018-Jan-19 12:30N 51°56' E 001°30'713.6
2018-Jan-19 12:00N 51°56' E 001°19'2 4.2
2018-Jan-19 11:30N 51°57' E 001°18'0 0.0
2018-Jan-19 11:00N 51°57' E 001°18'0 0.0
2018-Jan-19 10:30N 51°57' E 001°18'0 0.0
2018-Jan-19 10:00N 51°57' E 001°18'  

Dump ship's entire track history